Time;durP1;ratioP1;P1;durP2;ratioP2;P2;SDS_P1;SDS_P2;PMS_P1;PMS_P2;Temp;Humidity;BMP_temperature;BMP_pressure;BME280_temperature;BME280_humidity;BME280_pressure;Samples;Min_cycle;Max_cycle;Signal;HPM_P1;HPM_P2
2022/06/08 00:00:57;;;;;;;7.57;6.67;;;13.30;97.90;;;;;;4966795;28;20496;-58
2022/06/08 00:03:27;;;;;;;7.23;6.43;;;13.30;98.20;;;;;;4963506;28;21047;-59
2022/06/08 00:05:55;;;;;;;8.17;6.37;;;13.20;98.30;;;;;;4964765;28;20946;-58
2022/06/08 00:08:22;;;;;;;8.30;7.33;;;13.20;98.30;;;;;;4966082;28;20532;-59
2022/06/08 00:10:49;;;;;;;8.17;5.93;;;13.20;98.20;;;;;;4965772;28;20549;-58
2022/06/08 00:13:15;;;;;;;9.50;8.03;;;13.30;98.30;;;;;;4964702;28;20492;-59
2022/06/08 00:15:42;;;;;;;7.00;4.93;;;13.30;98.50;;;;;;4966491;28;20504;-59
2022/06/08 00:18:13;;;;;;;6.77;4.77;;;13.30;98.00;;;;;;4984894;28;20835;-60
2022/06/08 00:20:40;;;;;;;5.57;5.03;;;13.30;98.10;;;;;;4982359;28;21908;-59
2022/06/08 00:23:09;;;;;;;4.20;3.80;;;13.30;98.10;;;;;;4984263;28;20504;-58
2022/06/08 00:25:37;;;;;;;7.77;5.47;;;13.20;98.00;;;;;;4963387;28;20860;-59
2022/06/08 00:28:04;;;;;;;8.87;6.13;;;13.10;98.20;;;;;;4980486;28;20483;-58
2022/06/08 00:30:31;;;;;;;8.60;6.60;;;13.00;98.40;;;;;;4982233;28;20496;-58
2022/06/08 00:32:58;;;;;;;15.70;6.00;;;13.00;98.40;;;;;;4983081;28;20487;-58
2022/06/08 00:35:26;;;;;;;7.73;6.40;;;13.00;98.70;;;;;;4981517;28;20498;-58
2022/06/08 00:37:52;;;;;;;8.90;6.23;;;12.90;99.10;;;;;;4988472;28;20494;-58
2022/06/08 00:40:24;;;;;;;12.17;6.07;;;12.90;99.40;;;;;;4984450;28;20858;-58
2022/06/08 00:42:52;;;;;;;11.17;7.00;;;12.90;99.20;;;;;;4987187;28;20505;-58
2022/06/08 00:45:21;;;;;;;12.67;9.10;;;13.00;99.10;;;;;;4984816;28;21084;-57
2022/06/08 00:47:51;;;;;;;11.70;6.93;;;12.90;99.00;;;;;;4985523;28;21021;-58
2022/06/08 00:50:23;;;;;;;18.40;8.40;;;12.90;99.10;;;;;;4983711;28;20503;-58
2022/06/08 00:52:51;;;;;;;5.87;5.27;;;13.00;99.20;;;;;;4983498;28;20548;-58
2022/06/08 00:55:22;;;;;;;9.60;6.17;;;13.00;99.00;;;;;;4986320;28;21132;-58
2022/06/08 00:57:52;;;;;;;9.50;7.90;;;13.00;99.00;;;;;;4986102;28;20491;-57
2022/06/08 01:00:23;;;;;;;18.73;7.40;;;13.00;98.90;;;;;;4985159;28;20502;-57
2022/06/08 01:02:49;;;;;;;16.27;7.43;;;13.00;98.90;;;;;;4988483;28;20489;-57
2022/06/08 01:05:24;;;;;;;15.97;10.83;;;13.10;98.90;;;;;;4983770;28;20492;-57
2022/06/08 01:07:53;;;;;;;14.57;7.00;;;13.10;98.80;;;;;;4994883;28;21179;-57
2022/06/08 01:10:25;;;;;;;12.50;8.40;;;13.10;98.80;;;;;;4988543;28;20780;-57
2022/06/08 01:12:52;;;;;;;9.57;5.37;;;13.10;99.10;;;;;;4994473;28;20489;-58
2022/06/08 01:15:24;;;;;;;15.80;9.27;;;13.00;99.60;;;;;;4993883;28;20492;-58
2022/06/08 01:17:51;;;;;;;7.63;4.73;;;13.00;99.70;;;;;;4995400;28;21023;-58
2022/06/08 01:20:18;;;;;;;10.97;6.40;;;12.90;99.30;;;;;;4990985;28;20477;-58
2022/06/08 01:22:46;;;;;;;9.87;6.43;;;13.00;99.40;;;;;;5000846;28;20486;-58
2022/06/08 01:25:15;;;;;;;9.00;4.73;;;;;;;;;;4990685;28;20510;-58
2022/06/08 01:28:05;;;;;;;8.43;6.27;;;13.10;99.00;;;;;;4998798;28;20487;-58
2022/06/08 01:30:44;;;;;;;16.00;7.57;;;13.10;98.80;;;;;;4989341;28;20959;-57
2022/06/08 01:33:31;;;;;;;5.37;2.93;;;13.10;98.90;;;;;;4983280;28;20522;-57
2022/06/08 01:36:11;;;;;;;8.87;4.47;;;13.20;98.80;;;;;;4981045;28;20495;-57
2022/06/08 01:38:47;;;;;;;8.47;5.50;;;13.10;98.70;;;;;;4980354;28;20494;-57
2022/06/08 01:41:33;;;;;;;10.43;4.63;;;13.10;98.80;;;;;;4976030;28;21031;-56
2022/06/08 01:44:10;;;;;;;6.30;4.60;;;13.00;98.80;;;;;;4978780;28;20908;-56
2022/06/08 01:46:42;;;;;;;5.63;5.00;;;13.00;99.10;;;;;;4986499;28;20878;-56
2022/06/08 01:49:23;;;;;;;9.80;4.50;;;13.00;99.30;;;;;;4984129;28;20495;-56
2022/06/08 01:51:55;;;;;;;9.50;4.93;;;;;;;;;;4982309;28;20497;-56
2022/06/08 01:54:29;;;;;;;12.10;7.10;;;;;;;;;;4967936;28;20489;-56
2022/06/08 01:57:03;;;;;;;10.33;4.03;;;13.10;99.40;;;;;;4984148;28;20842;-56
2022/06/08 01:59:40;;;;;;;11.40;6.70;;;13.10;99.20;;;;;;4984390;28;20861;-55
2022/06/08 02:02:16;;;;;;;7.73;3.40;;;13.20;99.30;;;;;;4969182;28;20527;-56
2022/06/08 02:04:48;;;;;;;14.50;6.53;;;13.20;99.20;;;;;;4984461;28;20491;-56
2022/06/08 02:07:23;;;;;;;14.80;5.40;;;13.30;99.30;;;;;;4978694;28;20489;-56
2022/06/08 02:09:56;;;;;;;10.70;4.40;;;13.30;99.30;;;;;;4978760;28;20503;-56
2022/06/08 02:12:24;;;;;;;15.43;6.40;;;13.30;99.50;;;;;;4972858;28;21111;-55
2022/06/08 02:14:54;;;;;;;5.60;4.13;;;13.30;99.50;;;;;;4976934;28;20507;-55
2022/06/08 02:17:27;;;;;;;12.90;5.00;;;13.40;99.70;;;;;;4982526;28;20490;-56
2022/06/08 02:19:57;;;;;;;15.80;5.17;;;13.40;99.90;;;;;;4982798;28;20506;-56
2022/06/08 02:22:30;;;;;;;16.03;7.47;;;13.50;99.50;;;;;;4982183;28;20507;-56
2022/06/08 02:25:02;;;;;;;12.43;5.30;;;13.50;99.30;;;;;;4973340;28;20487;-56
2022/06/08 02:27:34;;;;;;;13.77;5.30;;;13.40;99.50;;;;;;4965743;28;21155;-56
2022/06/08 02:30:08;;;;;;;7.10;4.47;;;13.40;99.70;;;;;;4981831;28;20481;-56
2022/06/08 02:35:34;;;;;;;18.60;7.90;;;13.40;99.60;;;;;;4983066;28;20606;-57
2022/06/08 02:38:07;;;;;;;7.40;4.07;;;13.40;99.40;;;;;;4981104;28;20497;-57
2022/06/08 02:40:38;;;;;;;14.70;6.00;;;13.50;99.60;;;;;;4982605;28;20975;-57
2022/06/08 02:43:10;;;;;;;7.33;3.83;;;13.40;99.90;;;;;;4979621;28;21483;-57
2022/06/08 02:45:39;;;;;;;11.53;5.67;;;13.40;99.90;;;;;;4975177;28;20498;-58
2022/06/08 02:48:10;;;;;;;10.50;4.30;;;13.40;99.90;;;;;;4985842;28;20491;-57
2022/06/08 02:50:39;;;;;;;14.47;5.00;;;13.50;99.80;;;;;;4983028;28;20587;-58
2022/06/08 02:53:46;;;;;;;9.40;5.30;;;13.50;99.50;;;;;;4975861;28;20494;-58
2022/06/08 02:56:24;;;;;;;10.27;4.70;;;13.40;99.30;;;;;;4991679;28;20491;-57
2022/06/08 02:58:58;;;;;;;8.07;4.17;;;;;;;;;;4980953;28;20495;-58
2022/06/08 03:01:32;;;;;;;13.10;8.03;;;13.60;98.90;;;;;;4981991;28;20835;-58
2022/06/08 03:04:05;;;;;;;12.63;4.83;;;13.60;98.70;;;;;;4982356;28;21442;-58
2022/06/08 03:06:37;;;;;;;11.33;6.67;;;13.60;98.50;;;;;;4967349;28;20492;-58
2022/06/08 03:09:07;;;;;;;6.23;4.00;;;13.60;98.60;;;;;;5001195;28;20901;-59
2022/06/08 03:11:41;;;;;;;11.13;6.63;;;13.60;98.50;;;;;;4998742;28;20491;-59
2022/06/08 03:14:10;;;;;;;7.50;3.67;;;13.60;98.40;;;;;;4996336;28;20621;-58
2022/06/08 03:16:40;;;;;;;9.80;4.27;;;13.60;98.20;;;;;;4973844;28;20496;-58
2022/06/08 03:19:07;;;;;;;6.30;4.00;;;13.50;98.10;;;;;;4969930;28;21047;-57
2022/06/08 03:21:35;;;;;;;9.10;4.90;;;;;;;;;;4975532;28;20500;-57
2022/06/08 03:24:02;;;;;;;8.13;5.73;;;13.40;98.20;;;;;;4966813;28;20497;-58
2022/06/08 03:26:39;;;;;;;17.27;8.00;;;13.30;98.40;;;;;;5011289;28;21117;-58
2022/06/08 03:29:05;;;;;;;11.63;5.20;;;13.30;98.30;;;;;;4967139;28;20598;-57
2022/06/08 03:31:32;;;;;;;10.40;4.90;;;;;;;;;;4983224;28;20565;-57
2022/06/08 03:33:59;;;;;;;17.43;5.90;;;13.30;98.10;;;;;;5001787;28;20489;-57
2022/06/08 03:36:26;;;;;;;12.40;7.30;;;13.30;98.10;;;;;;4960248;28;21047;-57
2022/06/08 03:38:52;;;;;;;16.43;4.60;;;13.30;98.10;;;;;;4976130;28;20508;-57
2022/06/08 03:41:20;;;;;;;13.10;6.90;;;13.30;97.90;;;;;;4995994;28;20498;-57
2022/06/08 03:43:48;;;;;;;11.73;6.27;;;13.10;98.10;;;;;;4978483;28;22329;-57
2022/06/08 03:46:17;;;;;;;14.70;4.17;;;13.10;98.40;;;;;;4966343;28;20806;-58
2022/06/08 03:48:44;;;;;;;18.07;5.43;;;13.10;98.30;;;;;;4969978;28;20483;-55
2022/06/08 03:51:13;;;;;;;9.07;5.13;;;13.10;98.10;;;;;;4976525;28;21370;-57
2022/06/08 03:53:44;;;;;;;8.23;5.60;;;13.20;98.00;;;;;;4966363;28;20484;-57
2022/06/08 03:56:12;;;;;;;12.33;3.97;;;13.20;97.90;;;;;;4972799;28;20490;-58
2022/06/08 03:58:39;;;;;;;6.70;4.40;;;13.10;98.00;;;;;;4983645;28;21073;-58
2022/06/08 04:01:07;;;;;;;13.00;5.17;;;13.10;98.10;;;;;;4962397;28;20494;-58
2022/06/08 04:03:34;;;;;;;9.10;6.00;;;13.10;98.20;;;;;;4968353;28;20493;-57
2022/06/08 04:06:00;;;;;;;18.77;4.60;;;13.20;98.40;;;;;;5008022;28;21154;-57
2022/06/08 04:08:28;;;;;;;13.40;6.33;;;15.20;99.10;;;;;;4961335;28;20504;-57
2022/06/08 04:10:54;;;;;;;6.63;4.57;;;13.20;98.20;;;;;;4967991;28;21196;-57
2022/06/08 04:13:21;;;;;;;6.47;4.80;;;13.30;98.30;;;;;;4970835;28;20909;-57
2022/06/08 04:15:49;;;;;;;16.00;6.00;;;13.30;98.10;;;;;;4976407;28;20537;-57
2022/06/08 04:18:18;;;;;;;12.20;4.80;;;13.40;98.00;;;;;;4996818;28;20491;-57
2022/06/08 04:20:48;;;;;;;12.67;4.80;;;13.40;98.00;;;;;;4997300;28;20507;-56
2022/06/08 04:23:16;;;;;;;10.10;4.43;;;13.40;98.30;;;;;;5000263;28;20520;-57
2022/06/08 04:25:44;;;;;;;8.40;5.30;;;13.50;98.50;;;;;;5002597;28;21888;-57
2022/06/08 04:28:13;;;;;;;20.53;6.30;;;13.60;98.90;;;;;;5000756;28;20802;-56
2022/06/08 04:30:40;;;;;;;13.17;6.73;;;13.70;99.30;;;;;;4991759;28;20494;-56
2022/06/08 04:33:07;;;;;;;6.83;4.70;;;13.80;99.40;;;;;;4999318;28;20961;-56
2022/06/08 04:35:35;;;;;;;15.97;4.47;;;13.90;99.40;;;;;;4992064;28;20493;-57
2022/06/08 04:38:02;;;;;;;9.60;4.60;;;;;;;;;;4997467;28;20497;-57
2022/06/08 04:40:29;;;;;;;10.80;6.80;;;14.10;99.10;;;;;;4994460;28;20495;-57
2022/06/08 04:42:56;;;;;;;11.90;4.50;;;14.10;99.10;;;;;;4993981;28;20495;-57
2022/06/08 04:45:24;;;;;;;22.53;7.07;;;14.20;99.00;;;;;;4993001;28;20501;-56
2022/06/08 04:47:50;;;;;;;9.07;5.10;;;14.20;99.10;;;;;;4974579;28;20498;-57
2022/06/08 04:50:17;;;;;;;15.67;5.03;;;14.20;99.30;;;;;;4978305;28;20488;-56
2022/06/08 04:52:45;;;;;;;12.33;3.77;;;14.30;99.30;;;;;;4976655;28;20492;-57
2022/06/08 04:55:14;;;;;;;7.53;5.30;;;14.30;99.20;;;;;;4976559;28;21269;-56
2022/06/08 04:57:41;;;;;;;9.23;5.57;;;14.40;99.30;;;;;;4980282;28;20569;-56
2022/06/08 05:00:11;;;;;;;13.27;6.30;;;14.50;99.10;;;;;;4980472;28;21022;-57
2022/06/08 05:02:44;;;;;;;17.70;4.90;;;14.50;99.20;;;;;;4981175;28;20503;-56
2022/06/08 05:05:12;;;;;;;6.70;4.80;;;14.50;99.10;;;;;;4979840;28;21090;-56
2022/06/08 05:07:38;;;;;;;10.13;5.30;;;14.60;99.00;;;;;;4983040;28;20493;-56
2022/06/08 05:10:08;;;;;;;23.43;4.80;;;14.60;99.10;;;;;;4979387;28;21171;-57
2022/06/08 05:12:36;;;;;;;13.50;5.73;;;14.70;99.20;;;;;;4978996;28;20496;-56
2022/06/08 05:15:05;;;;;;;6.60;4.43;;;14.70;99.50;;;;;;4982060;28;21316;-56
2022/06/08 05:17:33;;;;;;;25.80;6.80;;;14.80;99.80;;;;;;4982280;28;20496;-56
2022/06/08 05:19:59;;;;;;;9.97;4.70;;;14.90;99.90;;;;;;4992043;28;21189;-56
2022/06/08 05:22:26;;;;;;;13.00;8.30;;;15.00;99.90;;;;;;5001821;28;20865;-56
2022/06/08 05:24:54;;;;;;;11.53;4.90;;;15.20;99.90;;;;;;5000672;28;20497;-56
2022/06/08 05:27:22;;;;;;;9.60;5.17;;;15.40;99.90;;;;;;5001527;28;20813;-56
2022/06/08 05:29:49;;;;;;;12.60;5.87;;;15.50;99.90;;;;;;5000049;28;20474;-58
2022/06/08 05:32:16;;;;;;;12.73;5.80;;;;;;;;;;5001376;28;20505;-58
2022/06/08 05:34:43;;;;;;;24.50;6.30;;;15.90;99.90;;;;;;4999601;28;21365;-58
2022/06/08 05:37:09;;;;;;;7.40;4.90;;;16.10;99.90;;;;;;5000923;28;21065;-58
2022/06/08 05:39:36;;;;;;;9.83;5.13;;;16.20;99.90;;;;;;5003108;28;20510;-59
2022/06/08 05:42:03;;;;;;;9.90;5.70;;;16.20;99.90;;;;;;5002790;28;21257;-58
2022/06/08 05:44:32;;;;;;;15.30;7.10;;;;;;;;;;5001261;28;20500;-58
2022/06/08 05:46:59;;;;;;;13.23;4.60;;;16.20;99.90;;;;;;4997514;28;20495;-60
2022/06/08 05:49:26;;;;;;;9.43;7.30;;;16.30;99.90;;;;;;5008022;28;21007;-59
2022/06/08 05:51:53;;;;;;;12.17;5.73;;;16.40;99.90;;;;;;5002948;28;20488;-59
2022/06/08 05:54:20;;;;;;;11.00;5.97;;;16.60;99.90;;;;;;5000834;28;20507;-59
2022/06/08 05:56:46;;;;;;;17.50;5.60;;;17.00;99.90;;;;;;4996340;28;21071;-59
2022/06/08 05:59:13;;;;;;;9.83;4.20;;;16.90;99.90;;;;;;4998080;28;20511;-59
2022/06/08 06:01:42;;;;;;;9.20;4.20;;;16.90;99.90;;;;;;4988294;28;20501;-60
2022/06/08 06:04:09;;;;;;;11.57;5.50;;;17.00;99.90;;;;;;4984038;28;21158;-59
2022/06/08 06:06:38;;;;;;;9.47;5.50;;;17.10;99.90;;;;;;4987460;28;20493;-59
2022/06/08 06:09:06;;;;;;;10.93;4.60;;;17.20;99.90;;;;;;4983006;28;20497;-60
2022/06/08 06:11:32;;;;;;;9.80;7.27;;;17.30;99.90;;;;;;4990254;28;20499;-59
2022/06/08 06:14:00;;;;;;;9.07;5.03;;;17.40;99.90;;;;;;5005001;28;20581;-60
2022/06/08 06:16:26;;;;;;;12.70;7.13;;;17.50;99.90;;;;;;5006267;28;20507;-60
2022/06/08 06:18:55;;;;;;;6.73;5.30;;;17.60;99.90;;;;;;5004174;28;21413;-60
2022/06/08 06:21:25;;;;;;;16.83;7.90;;;17.80;99.90;;;;;;5004953;28;20499;-60
2022/06/08 06:23:52;;;;;;;7.80;4.33;;;18.00;99.70;;;;;;5002870;28;20518;-61
2022/06/08 06:26:18;;;;;;;9.90;5.23;;;18.10;99.80;;;;;;5003934;28;20484;-61
2022/06/08 06:28:45;;;;;;;10.33;5.50;;;18.30;99.60;;;;;;4998436;28;20518;-61
2022/06/08 06:31:16;;;;;;;7.23;4.43;;;18.50;99.90;;;;;;4999186;28;20500;-60
2022/06/08 06:33:43;;;;;;;10.00;4.03;;;18.60;99.30;;;;;;4999645;28;20484;-60
2022/06/08 06:36:11;;;;;;;9.27;5.80;;;18.70;99.90;;;;;;4997543;28;21243;-61
2022/06/08 06:38:37;;;;;;;10.50;5.97;;;18.70;98.80;;;;;;4999843;28;21103;-61
2022/06/08 06:41:05;;;;;;;11.80;4.37;;;18.70;98.40;;;;;;4992277;28;20823;-60
2022/06/08 06:43:32;;;;;;;18.10;6.27;;;18.70;98.00;;;;;;5013754;28;20527;-60
2022/06/08 06:45:59;;;;;;;11.00;4.30;;;18.70;97.80;;;;;;4998485;28;20521;-59
2022/06/08 06:48:26;;;;;;;9.03;5.33;;;18.70;99.00;;;;;;5000178;28;20476;-60
2022/06/08 06:50:53;;;;;;;22.53;4.27;;;18.80;98.80;;;;;;5001906;28;25072;-59
2022/06/08 06:53:21;;;;;;;13.70;4.67;;;18.90;98.90;;;;;;5002700;28;20489;-60
2022/06/08 06:55:48;;;;;;;18.13;5.33;;;19.00;98.50;;;;;;5000938;28;20496;-59
2022/06/08 06:58:15;;;;;;;12.63;4.03;;;19.10;97.50;;;;;;5004235;28;20872;-58
2022/06/08 07:00:41;;;;;;;7.30;4.17;;;19.10;96.60;;;;;;4999280;28;20522;-58
2022/06/08 07:03:09;;;;;;;7.83;4.53;;;19.20;96.70;;;;;;4994205;28;20571;-57
2022/06/08 07:05:36;;;;;;;21.27;4.97;;;19.30;97.00;;;;;;4994206;28;20553;-59
2022/06/08 07:08:04;;;;;;;12.77;4.53;;;19.50;97.30;;;;;;4996385;28;20481;-58
2022/06/08 07:10:32;;;;;;;14.23;5.83;;;19.70;96.70;;;;;;4997769;28;20504;-57
2022/06/08 07:12:59;;;;;;;9.43;3.83;;;19.90;96.30;;;;;;5001593;28;20485;-57
2022/06/08 07:15:27;;;;;;;9.47;6.10;;;20.10;96.70;;;;;;5001253;28;20491;-58
2022/06/08 07:17:54;;;;;;;8.33;3.20;;;20.00;93.80;;;;;;5001909;28;21762;-56
2022/06/08 07:20:21;;;;;;;14.13;5.20;;;20.10;94.30;;;;;;4994919;28;20490;-56
2022/06/08 07:22:49;;;;;;;12.47;5.50;;;19.50;93.80;;;;;;4996894;28;20862;-59
2022/06/08 07:25:17;;;;;;;4.60;4.20;;;20.20;94.80;;;;;;4984541;28;20524;-57
2022/06/08 07:27:46;;;;;;;14.50;3.87;;;20.30;94.50;;;;;;5000813;28;20488;-58
2022/06/08 07:30:14;;;;;;;5.07;3.90;;;20.50;95.80;;;;;;4999269;28;20479;-59
2022/06/08 07:32:41;;;;;;;5.03;3.97;;;20.40;93.70;;;;;;4999723;28;20484;-58
2022/06/08 07:35:09;;;;;;;11.67;3.73;;;20.40;93.30;;;;;;4997501;28;20504;-58
2022/06/08 07:37:35;;;;;;;9.00;4.13;;;20.40;93.80;;;;;;4999994;28;20851;-58
2022/06/08 07:40:02;;;;;;;5.97;4.10;;;20.50;94.80;;;;;;5001572;28;20790;-58
2022/06/08 07:42:29;;;;;;;14.53;6.73;;;20.40;94.40;;;;;;4999766;28;21060;-56
2022/06/08 07:44:57;;;;;;;5.63;3.90;;;20.40;94.00;;;;;;5000439;28;21338;-57
2022/06/08 07:47:24;;;;;;;7.07;6.37;;;20.30;93.70;;;;;;4997930;28;20504;-57
2022/06/08 07:49:51;;;;;;;8.30;2.87;;;20.10;93.20;;;;;;4997110;28;20519;-55
2022/06/08 07:52:20;;;;;;;10.53;4.20;;;20.20;94.40;;;;;;5002633;28;20492;-55
2022/06/08 07:54:47;;;;;;;17.63;5.13;;;;;;;;;;4999524;28;20962;-57
2022/06/08 07:57:17;;;;;;;10.70;3.37;;;20.20;94.00;;;;;;4998514;28;20495;-55
2022/06/08 07:59:44;;;;;;;7.40;3.33;;;20.20;93.40;;;;;;5002679;28;21866;-55
2022/06/08 08:02:14;;;;;;;5.10;3.40;;;20.20;92.90;;;;;;5001468;28;20486;-56
2022/06/08 08:04:41;;;;;;;11.20;4.07;;;20.20;93.60;;;;;;5004310;28;21015;-57
2022/06/08 08:07:09;;;;;;;4.97;4.17;;;20.30;94.00;;;;;;5001896;28;20491;-56
2022/06/08 08:09:35;;;;;;;29.97;5.83;;;20.50;94.00;;;;;;5000729;28;20497;-56
2022/06/08 08:12:03;;;;;;;9.40;5.40;;;20.70;94.80;;;;;;4997556;28;20488;-56
2022/06/08 08:14:32;;;;;;;7.47;6.23;;;20.80;92.80;;;;;;4996503;28;20508;-57
2022/06/08 08:16:58;;;;;;;9.13;3.43;;;21.00;92.60;;;;;;4994664;28;20482;-57
2022/06/08 08:19:26;;;;;;;8.07;4.97;;;21.10;92.40;;;;;;5000731;28;21429;-58
2022/06/08 08:21:54;;;;;;;5.23;3.23;;;21.30;92.70;;;;;;4999380;28;20502;-56
2022/06/08 08:24:22;;;;;;;25.17;5.77;;;21.50;92.20;;;;;;4978659;28;20493;-57
2022/06/08 08:26:50;;;;;;;3.77;3.47;;;21.40;92.20;;;;;;4995484;28;21097;-57
2022/06/08 08:29:17;;;;;;;4.93;3.63;;;21.50;92.10;;;;;;4996351;28;20964;-56
2022/06/08 08:31:44;;;;;;;7.40;2.70;;;21.50;91.60;;;;;;4998457;28;20498;-57
2022/06/08 08:34:11;;;;;;;3.03;2.70;;;21.60;92.90;;;;;;4998770;28;20540;-58
2022/06/08 08:36:39;;;;;;;3.97;3.50;;;21.90;93.00;;;;;;4999958;28;20571;-56
2022/06/08 08:39:06;;;;;;;9.63;3.33;;;22.00;92.60;;;;;;4994892;28;20788;-57
2022/06/08 08:44:32;;;;;;;18.40;4.70;;;22.00;91.70;;;;;;5001689;28;20545;-57
2022/06/08 08:47:09;;;;;;;5.47;4.43;;;21.90;91.00;;;;;;4998027;28;21024;-58
2022/06/08 08:49:37;;;;;;;7.40;3.10;;;21.70;91.80;;;;;;4997506;28;21112;-58
2022/06/08 08:52:15;;;;;;;5.30;3.30;;;21.70;92.40;;;;;;5003610;28;20515;-57
2022/06/08 08:54:52;;;;;;;8.20;3.37;;;21.70;91.50;;;;;;4999482;28;20491;-58
2022/06/08 08:57:26;;;;;;;6.60;4.07;;;21.50;91.20;;;;;;5002941;28;20513;-56
2022/06/08 08:59:53;;;;;;;5.33;3.67;;;;;;;;;;5000865;28;20496;-58
2022/06/08 09:05:09;;;;;;;4.57;4.17;;;21.00;91.00;;;;;;5004467;28;20545;-57
2022/06/08 09:07:38;;;;;;;5.07;3.57;;;21.00;91.50;;;;;;4998555;28;20496;-56
2022/06/08 09:10:06;;;;;;;6.20;3.73;;;21.00;91.90;;;;;;5015095;28;20558;-59
2022/06/08 09:12:33;;;;;;;5.43;4.80;;;21.00;91.90;;;;;;4983069;28;20631;-58
2022/06/08 09:15:01;;;;;;;6.10;4.37;;;20.90;91.80;;;;;;4995304;28;21044;-57
2022/06/08 09:17:33;;;;;;;8.27;5.47;;;20.90;92.00;;;;;;4999656;28;21381;-58
2022/06/08 09:20:01;;;;;;;10.70;4.00;;;20.90;92.00;;;;;;5000722;28;20578;-58
2022/06/08 09:22:29;;;;;;;7.40;6.03;;;20.90;92.50;;;;;;5002291;28;20491;-58
2022/06/08 09:25:00;;;;;;;4.27;1.70;;;20.90;92.40;;;;;;5000726;28;20496;-57
2022/06/08 09:27:29;;;;;;;12.97;5.53;;;20.90;92.20;;;;;;5002859;28;20879;-56
2022/06/08 09:30:11;;;;;;;3.50;2.83;;;21.00;92.80;;;;;;4988194;28;20869;-56
2022/06/08 09:32:44;;;;;;;11.50;3.90;;;21.10;93.00;;;;;;4998238;28;20490;-56
2022/06/08 09:35:22;;;;;;;5.40;4.30;;;21.20;93.20;;;;;;5002256;28;20623;-55
2022/06/08 09:37:51;;;;;;;5.43;3.97;;;21.10;92.50;;;;;;4999286;28;20499;-56
2022/06/08 09:43:17;;;;;;;25.80;5.10;;;21.20;92.40;;;;;;4995852;28;20495;-56
2022/06/08 09:45:51;;;;;;;6.60;3.60;;;21.30;91.90;;;;;;4999171;28;20486;-56
2022/06/08 09:51:28;;;;;;;6.17;4.57;;;21.30;91.40;;;;;;4997829;28;20597;-56
2022/06/08 09:54:05;;;;;;;11.93;5.23;;;21.30;92.00;;;;;;5000592;28;21792;-57
2022/06/08 09:56:48;;;;;;;5.33;4.73;;;21.30;92.00;;;;;;4979451;28;20484;-56
2022/06/08 09:59:23;;;;;;;4.13;3.73;;;21.40;91.90;;;;;;4978713;28;20516;-60
2022/06/08 10:01:56;;;;;;;3.13;2.83;;;21.70;92.50;;;;;;4979107;28;20479;-56
2022/06/08 10:04:39;;;;;;;6.77;5.47;;;21.60;91.80;;;;;;4973658;28;20514;-56
2022/06/08 10:07:17;;;;;;;7.53;4.00;;;21.60;90.70;;;;;;4984112;28;21645;-58
2022/06/08 10:10:14;;;;;;;9.13;3.63;;;21.50;90.30;;;;;;4986277;28;20491;-59
2022/06/08 10:12:49;;;;;;;6.27;4.53;;;21.70;90.40;;;;;;4999081;28;20499;-57
2022/06/08 10:15:25;;;;;;;4.57;4.13;;;21.90;91.70;;;;;;5001105;28;21001;-55
2022/06/08 10:17:56;;;;;;;14.73;3.10;;;22.00;90.30;;;;;;5001163;28;20532;-59
2022/06/08 10:20:31;;;;;;;9.73;5.70;;;22.20;90.60;;;;;;5003035;28;20494;-55
2022/06/08 10:23:02;;;;;;;4.00;2.93;;;22.70;91.00;;;;;;4986521;28;20491;-57
2022/06/08 10:25:38;;;;;;;6.50;5.30;;;22.90;91.00;;;;;;4986739;28;20491;-56
2022/06/08 10:28:13;;;;;;;3.53;3.20;;;22.90;91.10;;;;;;4998981;28;21062;-54
2022/06/08 10:30:47;;;;;;;5.37;2.93;;;22.80;88.40;;;;;;4999653;28;20604;-54
2022/06/08 10:33:18;;;;;;;11.67;3.33;;;22.60;88.70;;;;;;5000356;28;20488;-57
2022/06/08 10:35:49;;;;;;;12.90;3.23;;;22.20;89.30;;;;;;5001499;28;20497;-56
2022/06/08 10:38:19;;;;;;;10.00;3.70;;;22.10;90.10;;;;;;5000714;28;20594;-54
2022/06/08 10:40:50;;;;;;;4.90;3.30;;;21.90;91.20;;;;;;5003328;28;20586;-61
2022/06/08 10:43:24;;;;;;;5.70;3.90;;;21.80;91.20;;;;;;5003868;28;20497;-55
2022/06/08 10:45:57;;;;;;;11.07;4.43;;;21.60;90.70;;;;;;5003135;28;21168;-55
2022/06/08 10:48:49;;;;;;;8.13;5.07;;;21.50;90.00;;;;;;5004384;28;20519;-55
2022/06/08 10:51:42;;;;;;;8.13;5.17;;;21.40;90.80;;;;;;4979313;28;20483;-55
2022/06/08 10:54:57;;;;;;;16.07;5.00;;;21.30;91.00;;;;;;4946488;28;21032;-55
2022/06/08 10:57:49;;;;;;;28.17;11.70;;;21.30;91.10;;;;;;4982101;28;20989;-57
2022/06/08 11:00:42;;;;;;;11.93;5.37;;;21.30;91.00;;;;;;4971711;28;20609;-56
2022/06/08 11:03:31;;;;;;;17.13;7.37;;;21.30;91.10;;;;;;4971932;28;21313;-56
2022/06/08 11:05:58;;;;;;;19.00;7.73;;;21.40;90.80;;;;;;4980196;28;20499;-56
2022/06/08 11:08:25;;;;;;;25.77;8.90;;;21.40;90.60;;;;;;4983446;28;20503;-57
2022/06/08 11:10:57;;;;;;;11.73;5.13;;;21.60;90.30;;;;;;4982906;28;21042;-56
2022/06/08 11:13:32;;;;;;;24.30;6.10;;;22.20;91.80;;;;;;4984418;28;20484;-56
2022/06/08 11:16:07;;;;;;;21.93;7.80;;;22.40;90.60;;;;;;4982985;28;20516;-56
2022/06/08 11:18:42;;;;;;;40.33;13.67;;;22.90;90.10;;;;;;4968712;28;20500;-56
2022/06/08 11:21:41;;;;;;;6.37;4.80;;;23.10;88.80;;;;;;4974646;28;20488;-57
2022/06/08 11:24:20;;;;;;;6.57;4.30;;;23.10;84.80;;;;;;4988100;28;20472;-55
2022/06/08 11:26:51;;;;;;;4.37;3.13;;;23.00;84.20;;;;;;4997363;28;21103;-59
2022/06/08 11:29:44;;;;;;;8.47;2.00;;;22.90;84.50;;;;;;4995129;28;20504;-60
2022/06/08 11:32:40;;;;;;;13.23;2.67;;;22.90;85.90;;;;;;4983859;28;20491;-57
2022/06/08 11:35:34;;;;;;;4.10;2.60;;;22.70;85.40;;;;;;4992295;28;20865;-59
2022/06/08 11:38:16;;;;;;;2.60;2.00;;;22.60;85.30;;;;;;4979128;28;20512;-55
2022/06/08 11:40:43;;;;;;;8.90;2.10;;;22.70;86.80;;;;;;4975821;28;20508;-56
2022/06/08 11:43:29;;;;;;;6.80;2.73;;;22.60;86.30;;;;;;4985038;28;20489;-56
2022/06/08 11:45:58;;;;;;;28.13;3.60;;;22.40;85.60;;;;;;4982858;28;20499;-58
2022/06/08 11:48:28;;;;;;;3.53;3.23;;;22.40;86.60;;;;;;4999862;28;21097;-60
2022/06/08 11:50:57;;;;;;;6.37;2.60;;;22.40;86.80;;;;;;4989584;28;20510;-57
2022/06/08 11:53:28;;;;;;;5.87;3.00;;;22.40;87.40;;;;;;4988880;28;20826;-55
2022/06/08 11:56:07;;;;;;;3.13;2.80;;;22.40;88.90;;;;;;4997856;28;20498;-56
2022/06/08 11:58:36;;;;;;;10.63;3.33;;;22.30;87.90;;;;;;4999830;28;20488;-56
2022/06/08 12:01:09;;;;;;;6.13;3.03;;;22.40;88.10;;;;;;5002972;28;20486;-54
2022/06/08 12:03:42;;;;;;;4.33;3.33;;;22.40;88.60;;;;;;4998279;28;20445;-55
2022/06/08 12:06:18;;;;;;;3.07;2.63;;;22.40;89.10;;;;;;5004445;28;20586;-55
2022/06/08 12:08:49;;;;;;;10.50;2.27;;;22.30;87.40;;;;;;4997338;28;21091;-56
2022/06/08 12:11:18;;;;;;;9.00;2.60;;;22.30;87.00;;;;;;4994293;28;25214;-56
2022/06/08 12:13:54;;;;;;;3.90;2.70;;;22.20;88.60;;;;;;4988731;28;20558;-57
2022/06/08 12:16:25;;;;;;;21.53;2.97;;;22.10;87.20;;;;;;5000011;28;20493;-59
2022/06/08 12:19:01;;;;;;;5.10;3.17;;;22.00;88.10;;;;;;4975775;28;20485;-56
2022/06/08 12:21:33;;;;;;;3.73;3.43;;;21.90;88.10;;;;;;4968633;28;20485;-56
2022/06/08 12:24:03;;;;;;;4.53;3.20;;;21.90;88.20;;;;;;4969226;28;20493;-56
2022/06/08 12:26:41;;;;;;;3.87;3.57;;;21.90;90.30;;;;;;4996581;28;20518;-55
2022/06/08 12:29:23;;;;;;;21.73;5.57;;;22.00;90.10;;;;;;4997557;28;20494;-57
2022/06/08 12:31:59;;;;;;;9.57;2.60;;;;;;;;;;4992672;28;20486;-56
2022/06/08 12:34:35;;;;;;;12.33;3.90;;;22.00;88.80;;;;;;4996310;28;21469;-56
2022/06/08 12:37:38;;;;;;;4.53;3.43;;;21.90;88.60;;;;;;4996305;28;25528;-55
2022/06/08 12:40:30;;;;;;;4.60;3.50;;;21.90;90.00;;;;;;4999857;28;20483;-56
2022/06/08 12:43:19;;;;;;;3.53;2.73;;;21.80;90.70;;;;;;4996689;28;20924;-56
2022/06/08 12:46:04;;;;;;;2.83;2.07;;;21.60;90.60;;;;;;4992117;28;20609;-53
2022/06/08 12:48:42;;;;;;;9.20;3.90;;;21.40;91.00;;;;;;5004589;28;20488;-61
2022/06/08 12:51:36;;;;;;;15.73;3.60;;;20.30;93.10;;;;;;5001127;28;21258;-54
2022/06/08 12:54:11;;;;;;;7.97;3.80;;;19.90;94.60;;;;;;4996262;28;20495;-55
2022/06/08 12:56:38;;;;;;;10.47;4.90;;;19.40;96.40;;;;;;4998248;28;20498;-58
2022/06/08 12:59:04;;;;;;;7.13;5.50;;;19.10;96.60;;;;;;4982440;28;20484;-61
2022/06/08 13:01:31;;;;;;;5.83;4.93;;;18.90;97.60;;;;;;4972625;28;20502;-60
2022/06/08 13:03:58;;;;;;;7.70;5.90;;;18.90;98.70;;;;;;4983700;28;20501;-60
2022/06/08 13:06:26;;;;;;;7.60;6.50;;;18.80;99.10;;;;;;4987773;28;20490;-61
2022/06/08 13:08:53;;;;;;;11.73;4.77;;;18.80;99.80;;;;;;4987327;28;20559;-60
2022/06/08 13:11:23;;;;;;;6.37;4.50;;;18.80;99.60;;;;;;4983160;28;20491;-61
2022/06/08 13:13:51;;;;;;;6.37;4.80;;;18.70;99.90;;;;;;4977253;28;20970;-60
2022/06/08 13:16:22;;;;;;;4.97;3.83;;;18.70;99.90;;;;;;4981815;28;20960;-59
2022/06/08 13:18:49;;;;;;;10.13;6.50;;;18.80;99.90;;;;;;4974124;28;20495;-60
2022/06/08 13:21:17;;;;;;;5.63;5.07;;;18.80;99.90;;;;;;4992495;28;20485;-59